Terminal Aerodrome Forecast
Issued by NWS Brownsville, TX

Home | Current Version | Previous Version | Text Only | Print | Product List | Glossary On
Versions: 1 2 3 4 5 6 7 8 9 10 11 12 13 14 15 16 17 18 19 20
000
FTUS44 KBRO 210500
TAFBRO
TAF
KBRO 210525Z 2106/2206 14007KT P6SM FEW025 OVC250
     FM210900 14006KT P6SM SCT015
      TEMPO 2111/2113 BKN007
     FM211500 14012KT P6SM OVC025
     FM211800 15014G21KT P6SM BKN035=

USA.gov is the U.S. government's official web portal to all federal, state and local government web resources and services.